sensor_id;sensor_type;location;lat;lon;timestamp;P1;durP1;ratioP1;P2;durP2;ratioP2
60292;SDS011;52402;52.670;6.750;2023-02-18T00:00:54;18.38;;;4.95;;
60292;SDS011;52402;52.670;6.750;2023-02-18T00:03:21;16.40;;;4.63;;
60292;SDS011;52402;52.670;6.750;2023-02-18T00:05:48;16.50;;;4.55;;
60292;SDS011;52402;52.670;6.750;2023-02-18T00:08:13;20.20;;;5.28;;
60292;SDS011;52402;52.670;6.750;2023-02-18T00:10:39;17.33;;;4.93;;
60292;SDS011;52402;52.670;6.750;2023-02-18T00:13:05;14.40;;;4.60;;
60292;SDS011;52402;52.670;6.750;2023-02-18T00:15:33;20.67;;;5.35;;
60292;SDS011;52402;52.670;6.750;2023-02-18T00:18:02;16.83;;;5.40;;
60292;SDS011;52402;52.670;6.750;2023-02-18T00:20:29;13.70;;;5.55;;
60292;SDS011;52402;52.670;6.750;2023-02-18T00:22:57;18.05;;;5.22;;
60292;SDS011;52402;52.670;6.750;2023-02-18T00:25:23;15.98;;;5.78;;
60292;SDS011;52402;52.670;6.750;2023-02-18T00:27:49;19.95;;;5.22;;
60292;SDS011;52402;52.670;6.750;2023-02-18T00:30:15;18.80;;;6.30;;
60292;SDS011;52402;52.670;6.750;2023-02-18T00:32:41;18.60;;;6.07;;
60292;SDS011;52402;52.670;6.750;2023-02-18T00:35:07;23.92;;;6.28;;
60292;SDS011;52402;52.670;6.750;2023-02-18T00:37:33;21.73;;;5.85;;
60292;SDS011;52402;52.670;6.750;2023-02-18T00:39:58;17.30;;;5.55;;
60292;SDS011;52402;52.670;6.750;2023-02-18T00:42:24;18.23;;;6.40;;
60292;SDS011;52402;52.670;6.750;2023-02-18T00:44:49;20.38;;;7.30;;
60292;SDS011;52402;52.670;6.750;2023-02-18T00:47:15;23.42;;;7.13;;
60292;SDS011;52402;52.670;6.750;2023-02-18T00:49:40;21.70;;;7.25;;
60292;SDS011;52402;52.670;6.750;2023-02-18T00:52:06;27.58;;;7.55;;
60292;SDS011;52402;52.670;6.750;2023-02-18T00:54:32;23.88;;;7.88;;
60292;SDS011;52402;52.670;6.750;2023-02-18T00:56:57;22.45;;;7.32;;
60292;SDS011;52402;52.670;6.750;2023-02-18T00:59:23;23.90;;;8.30;;
60292;SDS011;52402;52.670;6.750;2023-02-18T01:01:49;24.13;;;8.40;;
60292;SDS011;52402;52.670;6.750;2023-02-18T01:04:14;20.63;;;8.35;;
60292;SDS011;52402;52.670;6.750;2023-02-18T01:06:40;26.17;;;9.52;;
60292;SDS011;52402;52.670;6.750;2023-02-18T01:09:05;22.58;;;11.55;;
60292;SDS011;52402;52.670;6.750;2023-02-18T01:11:31;22.42;;;10.82;;
60292;SDS011;52402;52.670;6.750;2023-02-18T01:13:57;24.00;;;12.23;;
60292;SDS011;52402;52.670;6.750;2023-02-18T01:16:23;25.52;;;13.38;;
60292;SDS011;52402;52.670;6.750;2023-02-18T01:18:48;27.67;;;13.73;;
60292;SDS011;52402;52.670;6.750;2023-02-18T01:21:14;27.58;;;14.05;;
60292;SDS011;52402;52.670;6.750;2023-02-18T01:23:40;27.70;;;14.95;;
60292;SDS011;52402;52.670;6.750;2023-02-18T01:26:06;27.50;;;16.15;;
60292;SDS011;52402;52.670;6.750;2023-02-18T01:28:33;31.13;;;16.02;;
60292;SDS011;52402;52.670;6.750;2023-02-18T01:31:02;31.92;;;16.45;;
60292;SDS011;52402;52.670;6.750;2023-02-18T01:33:32;30.20;;;15.75;;
60292;SDS011;52402;52.670;6.750;2023-02-18T01:35:58;34.70;;;17.90;;
60292;SDS011;52402;52.670;6.750;2023-02-18T01:38:24;32.72;;;17.92;;
60292;SDS011;52402;52.670;6.750;2023-02-18T01:40:50;33.53;;;17.95;;
60292;SDS011;52402;52.670;6.750;2023-02-18T01:43:17;35.78;;;19.05;;
60292;SDS011;52402;52.670;6.750;2023-02-18T01:56:40;34.45;;;20.58;;
60292;SDS011;52402;52.670;6.750;2023-02-18T01:59:30;36.67;;;20.83;;
60292;SDS011;52402;52.670;6.750;2023-02-18T02:02:01;36.67;;;21.70;;
60292;SDS011;52402;52.670;6.750;2023-02-18T02:04:27;36.00;;;20.73;;
60292;SDS011;52402;52.670;6.750;2023-02-18T02:06:53;32.65;;;20.13;;
60292;SDS011;52402;52.670;6.750;2023-02-18T02:09:19;37.70;;;20.75;;
60292;SDS011;52402;52.670;6.750;2023-02-18T02:17:19;33.25;;;20.27;;
60292;SDS011;52402;52.670;6.750;2023-02-18T02:22:52;33.20;;;21.67;;
60292;SDS011;52402;52.670;6.750;2023-02-18T02:25:45;37.80;;;22.80;;
60292;SDS011;52402;52.670;6.750;2023-02-18T02:28:33;32.42;;;20.52;;
60292;SDS011;52402;52.670;6.750;2023-02-18T02:34:27;31.92;;;23.02;;
60292;SDS011;52402;52.670;6.750;2023-02-18T02:39:37;36.47;;;23.55;;
60292;SDS011;52402;52.670;6.750;2023-02-18T02:42:24;33.08;;;23.65;;
60292;SDS011;52402;52.670;6.750;2023-02-18T02:44:53;35.80;;;24.05;;
60292;SDS011;52402;52.670;6.750;2023-02-18T02:47:27;36.10;;;26.05;;
60292;SDS011;52402;52.670;6.750;2023-02-18T02:52:53;41.13;;;28.30;;
60292;SDS011;52402;52.670;6.750;2023-02-18T02:55:23;40.88;;;29.40;;
60292;SDS011;52402;52.670;6.750;2023-02-18T02:57:50;46.50;;;31.67;;
60292;SDS011;52402;52.670;6.750;2023-02-18T03:00:19;49.22;;;34.33;;
60292;SDS011;52402;52.670;6.750;2023-02-18T03:05:51;51.13;;;37.53;;
60292;SDS011;52402;52.670;6.750;2023-02-18T03:11:19;57.15;;;40.67;;
60292;SDS011;52402;52.670;6.750;2023-02-18T03:21:35;63.55;;;43.60;;
60292;SDS011;52402;52.670;6.750;2023-02-18T03:24:13;66.45;;;44.45;;
60292;SDS011;52402;52.670;6.750;2023-02-18T03:26:49;69.03;;;44.47;;
60292;SDS011;52402;52.670;6.750;2023-02-18T03:29:20;68.32;;;44.92;;
60292;SDS011;52402;52.670;6.750;2023-02-18T03:31:47;67.00;;;45.10;;
60292;SDS011;52402;52.670;6.750;2023-02-18T03:34:17;66.65;;;46.25;;
60292;SDS011;52402;52.670;6.750;2023-02-18T03:36:47;72.25;;;44.60;;
60292;SDS011;52402;52.670;6.750;2023-02-18T03:39:14;66.68;;;45.65;;
60292;SDS011;52402;52.670;6.750;2023-02-18T03:41:44;69.13;;;46.22;;
60292;SDS011;52402;52.670;6.750;2023-02-18T03:44:10;70.35;;;46.30;;
60292;SDS011;52402;52.670;6.750;2023-02-18T03:46:37;67.25;;;45.97;;
60292;SDS011;52402;52.670;6.750;2023-02-18T03:49:05;71.65;;;46.30;;
60292;SDS011;52402;52.670;6.750;2023-02-18T03:51:31;68.10;;;47.08;;
60292;SDS011;52402;52.670;6.750;2023-02-18T03:53:57;74.70;;;47.45;;
60292;SDS011;52402;52.670;6.750;2023-02-18T03:56:22;73.63;;;47.60;;
60292;SDS011;52402;52.670;6.750;2023-02-18T03:58:48;72.95;;;47.83;;
60292;SDS011;52402;52.670;6.750;2023-02-18T04:01:14;76.22;;;47.58;;
60292;SDS011;52402;52.670;6.750;2023-02-18T04:03:40;74.50;;;47.53;;
60292;SDS011;52402;52.670;6.750;2023-02-18T04:06:06;73.25;;;46.33;;
60292;SDS011;52402;52.670;6.750;2023-02-18T04:08:31;68.47;;;44.47;;
60292;SDS011;52402;52.670;6.750;2023-02-18T04:10:57;73.82;;;45.85;;
60292;SDS011;52402;52.670;6.750;2023-02-18T04:13:23;67.00;;;43.08;;
60292;SDS011;52402;52.670;6.750;2023-02-18T04:15:49;70.88;;;43.33;;
60292;SDS011;52402;52.670;6.750;2023-02-18T04:18:16;64.63;;;42.10;;
60292;SDS011;52402;52.670;6.750;2023-02-18T04:20:42;65.65;;;40.95;;
60292;SDS011;52402;52.670;6.750;2023-02-18T04:23:08;66.28;;;41.70;;
60292;SDS011;52402;52.670;6.750;2023-02-18T04:25:34;62.58;;;40.03;;
60292;SDS011;52402;52.670;6.750;2023-02-18T04:27:59;61.40;;;38.00;;
60292;SDS011;52402;52.670;6.750;2023-02-18T04:30:25;60.63;;;39.15;;
60292;SDS011;52402;52.670;6.750;2023-02-18T04:32:51;61.92;;;37.90;;
60292;SDS011;52402;52.670;6.750;2023-02-18T04:35:17;63.97;;;36.78;;
60292;SDS011;52402;52.670;6.750;2023-02-18T04:37:42;59.22;;;35.83;;
60292;SDS011;52402;52.670;6.750;2023-02-18T04:40:08;58.65;;;35.17;;
60292;SDS011;52402;52.670;6.750;2023-02-18T04:42:34;57.45;;;33.63;;
60292;SDS011;52402;52.670;6.750;2023-02-18T04:45:01;52.20;;;32.75;;
60292;SDS011;52402;52.670;6.750;2023-02-18T04:47:26;52.65;;;32.20;;
60292;SDS011;52402;52.670;6.750;2023-02-18T04:49:52;49.83;;;30.90;;
60292;SDS011;52402;52.670;6.750;2023-02-18T04:52:18;52.92;;;32.17;;
60292;SDS011;52402;52.670;6.750;2023-02-18T04:54:43;54.72;;;32.85;;
60292;SDS011;52402;52.670;6.750;2023-02-18T04:57:09;55.70;;;32.53;;
60292;SDS011;52402;52.670;6.750;2023-02-18T04:59:35;57.30;;;33.92;;
60292;SDS011;52402;52.670;6.750;2023-02-18T05:02:00;58.13;;;34.33;;
60292;SDS011;52402;52.670;6.750;2023-02-18T05:04:26;63.55;;;35.65;;
60292;SDS011;52402;52.670;6.750;2023-02-18T05:06:52;64.40;;;35.45;;
60292;SDS011;52402;52.670;6.750;2023-02-18T05:09:18;69.93;;;36.05;;
60292;SDS011;52402;52.670;6.750;2023-02-18T05:11:44;72.82;;;37.67;;
60292;SDS011;52402;52.670;6.750;2023-02-18T05:14:11;77.35;;;39.40;;
60292;SDS011;52402;52.670;6.750;2023-02-18T05:16:37;74.88;;;38.08;;
60292;SDS011;52402;52.670;6.750;2023-02-18T05:19:03;82.93;;;39.17;;
60292;SDS011;52402;52.670;6.750;2023-02-18T05:21:29;88.28;;;39.80;;
60292;SDS011;52402;52.670;6.750;2023-02-18T05:23:54;90.20;;;39.00;;
60292;SDS011;52402;52.670;6.750;2023-02-18T05:26:20;94.28;;;39.35;;
60292;SDS011;52402;52.670;6.750;2023-02-18T05:28:46;93.10;;;37.90;;
60292;SDS011;52402;52.670;6.750;2023-02-18T05:31:11;97.60;;;38.78;;
60292;SDS011;52402;52.670;6.750;2023-02-18T05:33:37;90.88;;;36.35;;
60292;SDS011;52402;52.670;6.750;2023-02-18T05:36:02;95.22;;;37.58;;
60292;SDS011;52402;52.670;6.750;2023-02-18T05:38:28;92.95;;;36.70;;
60292;SDS011;52402;52.670;6.750;2023-02-18T05:40:54;85.00;;;35.47;;
60292;SDS011;52402;52.670;6.750;2023-02-18T05:43:20;106.85;;;37.42;;
60292;SDS011;52402;52.670;6.750;2023-02-18T05:45:45;115.75;;;38.03;;
60292;SDS011;52402;52.670;6.750;2023-02-18T05:48:11;88.20;;;33.03;;
60292;SDS011;52402;52.670;6.750;2023-02-18T05:50:37;104.78;;;34.78;;
60292;SDS011;52402;52.670;6.750;2023-02-18T05:53:02;108.00;;;34.13;;
60292;SDS011;52402;52.670;6.750;2023-02-18T05:55:28;89.22;;;31.73;;
60292;SDS011;52402;52.670;6.750;2023-02-18T05:57:53;80.15;;;30.50;;
60292;SDS011;52402;52.670;6.750;2023-02-18T06:00:19;84.28;;;31.27;;
60292;SDS011;52402;52.670;6.750;2023-02-18T06:02:45;82.60;;;29.17;;
60292;SDS011;52402;52.670;6.750;2023-02-18T06:05:11;64.35;;;27.55;;
60292;SDS011;52402;52.670;6.750;2023-02-18T06:07:36;69.68;;;27.75;;
60292;SDS011;52402;52.670;6.750;2023-02-18T06:10:03;63.97;;;26.10;;
60292;SDS011;52402;52.670;6.750;2023-02-18T06:12:29;73.20;;;25.85;;
60292;SDS011;52402;52.670;6.750;2023-02-18T06:14:55;62.33;;;25.00;;
60292;SDS011;52402;52.670;6.750;2023-02-18T06:17:20;55.72;;;22.70;;
60292;SDS011;52402;52.670;6.750;2023-02-18T06:19:46;54.38;;;22.08;;
60292;SDS011;52402;52.670;6.750;2023-02-18T06:22:12;61.25;;;23.83;;
60292;SDS011;52402;52.670;6.750;2023-02-18T06:24:39;57.35;;;23.88;;
60292;SDS011;52402;52.670;6.750;2023-02-18T06:27:05;44.15;;;20.63;;
60292;SDS011;52402;52.670;6.750;2023-02-18T06:29:31;44.50;;;19.92;;
60292;SDS011;52402;52.670;6.750;2023-02-18T06:31:57;45.30;;;19.70;;
60292;SDS011;52402;52.670;6.750;2023-02-18T06:34:23;43.80;;;19.58;;
60292;SDS011;52402;52.670;6.750;2023-02-18T06:36:49;36.00;;;17.88;;
60292;SDS011;52402;52.670;6.750;2023-02-18T06:39:15;33.38;;;17.50;;
60292;SDS011;52402;52.670;6.750;2023-02-18T06:41:40;34.78;;;16.90;;
60292;SDS011;52402;52.670;6.750;2023-02-18T06:44:06;27.60;;;14.90;;
60292;SDS011;52402;52.670;6.750;2023-02-18T06:46:32;27.92;;;15.23;;
60292;SDS011;52402;52.670;6.750;2023-02-18T06:48:57;25.13;;;13.98;;
60292;SDS011;52402;52.670;6.750;2023-02-18T06:51:23;24.80;;;14.02;;
60292;SDS011;52402;52.670;6.750;2023-02-18T06:53:49;22.02;;;13.82;;
60292;SDS011;52402;52.670;6.750;2023-02-18T06:56:14;24.42;;;15.07;;
60292;SDS011;52402;52.670;6.750;2023-02-18T06:58:40;20.88;;;14.35;;
60292;SDS011;52402;52.670;6.750;2023-02-18T07:01:08;21.17;;;13.93;;
60292;SDS011;52402;52.670;6.750;2023-02-18T07:03:34;23.35;;;15.65;;
60292;SDS011;52402;52.670;6.750;2023-02-18T07:06:00;22.88;;;15.40;;
60292;SDS011;52402;52.670;6.750;2023-02-18T07:08:26;23.80;;;16.88;;
60292;SDS011;52402;52.670;6.750;2023-02-18T07:10:57;22.50;;;16.55;;
60292;SDS011;52402;52.670;6.750;2023-02-18T07:13:22;24.40;;;17.38;;
60292;SDS011;52402;52.670;6.750;2023-02-18T07:15:48;23.65;;;17.40;;
60292;SDS011;52402;52.670;6.750;2023-02-18T07:18:13;23.95;;;17.65;;
60292;SDS011;52402;52.670;6.750;2023-02-18T07:20:39;23.80;;;17.70;;
60292;SDS011;52402;52.670;6.750;2023-02-18T07:23:04;23.83;;;17.75;;
60292;SDS011;52402;52.670;6.750;2023-02-18T07:25:30;25.10;;;18.42;;
60292;SDS011;52402;52.670;6.750;2023-02-18T07:27:56;25.70;;;19.40;;
60292;SDS011;52402;52.670;6.750;2023-02-18T07:30:21;24.73;;;18.77;;
60292;SDS011;52402;52.670;6.750;2023-02-18T07:32:47;27.58;;;19.25;;
60292;SDS011;52402;52.670;6.750;2023-02-18T07:35:13;27.60;;;19.30;;
60292;SDS011;52402;52.670;6.750;2023-02-18T07:37:44;26.50;;;20.38;;
60292;SDS011;52402;52.670;6.750;2023-02-18T07:40:12;28.92;;;20.40;;
60292;SDS011;52402;52.670;6.750;2023-02-18T07:42:39;25.30;;;20.35;;
60292;SDS011;52402;52.670;6.750;2023-02-18T07:45:05;22.88;;;18.83;;
60292;SDS011;52402;52.670;6.750;2023-02-18T07:47:31;24.17;;;18.90;;
60292;SDS011;52402;52.670;6.750;2023-02-18T07:49:56;25.55;;;19.23;;
60292;SDS011;52402;52.670;6.750;2023-02-18T07:52:22;25.42;;;19.15;;
60292;SDS011;52402;52.670;6.750;2023-02-18T07:54:47;20.40;;;16.60;;
60292;SDS011;52402;52.670;6.750;2023-02-18T07:57:13;22.77;;;16.65;;
60292;SDS011;52402;52.670;6.750;2023-02-18T07:59:39;22.70;;;16.25;;
60292;SDS011;52402;52.670;6.750;2023-02-18T08:02:04;24.52;;;15.45;;
60292;SDS011;52402;52.670;6.750;2023-02-18T08:04:31;19.25;;;14.50;;
60292;SDS011;52402;52.670;6.750;2023-02-18T08:06:57;21.00;;;15.63;;
60292;SDS011;52402;52.670;6.750;2023-02-18T08:09:23;18.77;;;14.02;;
60292;SDS011;52402;52.670;6.750;2023-02-18T08:11:49;20.73;;;14.65;;
60292;SDS011;52402;52.670;6.750;2023-02-18T08:14:14;18.95;;;13.43;;
60292;SDS011;52402;52.670;6.750;2023-02-18T08:16:40;18.70;;;13.15;;
60292;SDS011;52402;52.670;6.750;2023-02-18T08:19:06;17.83;;;13.20;;
60292;SDS011;52402;52.670;6.750;2023-02-18T08:21:33;18.80;;;13.10;;
60292;SDS011;52402;52.670;6.750;2023-02-18T08:24:04;18.00;;;13.07;;
60292;SDS011;52402;52.670;6.750;2023-02-18T08:26:31;19.30;;;13.32;;
60292;SDS011;52402;52.670;6.750;2023-02-18T08:28:57;18.63;;;12.82;;
60292;SDS011;52402;52.670;6.750;2023-02-18T08:31:27;17.25;;;12.05;;
60292;SDS011;52402;52.670;6.750;2023-02-18T08:33:53;16.10;;;12.10;;
60292;SDS011;52402;52.670;6.750;2023-02-18T08:36:20;16.67;;;11.88;;
60292;SDS011;52402;52.670;6.750;2023-02-18T08:41:35;15.95;;;11.77;;
60292;SDS011;52402;52.670;6.750;2023-02-18T08:44:04;14.00;;;11.77;;
60292;SDS011;52402;52.670;6.750;2023-02-18T08:46:36;14.50;;;11.98;;
60292;SDS011;52402;52.670;6.750;2023-02-18T08:49:02;14.93;;;11.85;;
60292;SDS011;52402;52.670;6.750;2023-02-18T08:51:31;14.70;;;11.77;;
60292;SDS011;52402;52.670;6.750;2023-02-18T08:53:58;16.38;;;12.10;;
60292;SDS011;52402;52.670;6.750;2023-02-18T08:56:27;16.20;;;12.48;;
60292;SDS011;52402;52.670;6.750;2023-02-18T08:58:54;14.60;;;12.13;;
60292;SDS011;52402;52.670;6.750;2023-02-18T09:01:20;16.60;;;11.82;;
60292;SDS011;52402;52.670;6.750;2023-02-18T09:03:45;16.10;;;11.48;;
60292;SDS011;52402;52.670;6.750;2023-02-18T09:06:12;15.38;;;11.65;;
60292;SDS011;52402;52.670;6.750;2023-02-18T09:08:38;14.40;;;10.35;;
60292;SDS011;52402;52.670;6.750;2023-02-18T09:11:03;13.65;;;9.38;;
60292;SDS011;52402;52.670;6.750;2023-02-18T09:13:29;12.98;;;8.82;;
60292;SDS011;52402;52.670;6.750;2023-02-18T09:18:27;15.15;;;9.70;;
60292;SDS011;52402;52.670;6.750;2023-02-18T09:20:54;16.20;;;10.00;;
60292;SDS011;52402;52.670;6.750;2023-02-18T09:23:22;16.70;;;9.02;;
60292;SDS011;52402;52.670;6.750;2023-02-18T09:25:48;15.35;;;9.25;;
60292;SDS011;52402;52.670;6.750;2023-02-18T09:28:13;15.43;;;9.48;;
60292;SDS011;52402;52.670;6.750;2023-02-18T09:30:39;18.05;;;9.10;;
60292;SDS011;52402;52.670;6.750;2023-02-18T09:33:05;14.60;;;7.90;;
60292;SDS011;52402;52.670;6.750;2023-02-18T09:35:30;12.52;;;6.40;;
60292;SDS011;52402;52.670;6.750;2023-02-18T09:37:56;13.48;;;7.28;;
60292;SDS011;52402;52.670;6.750;2023-02-18T09:40:25;14.02;;;7.30;;
60292;SDS011;52402;52.670;6.750;2023-02-18T09:42:54;13.85;;;6.10;;
60292;SDS011;52402;52.670;6.750;2023-02-18T09:45:23;13.48;;;6.70;;
60292;SDS011;52402;52.670;6.750;2023-02-18T09:47:49;12.40;;;5.85;;
60292;SDS011;52402;52.670;6.750;2023-02-18T09:50:23;14.15;;;6.80;;
60292;SDS011;52402;52.670;6.750;2023-02-18T09:52:52;14.20;;;6.25;;
60292;SDS011;52402;52.670;6.750;2023-02-18T09:55:23;15.50;;;6.75;;
60292;SDS011;52402;52.670;6.750;2023-02-18T09:57:52;17.02;;;6.75;;
60292;SDS011;52402;52.670;6.750;2023-02-18T10:00:27;16.40;;;6.30;;
60292;SDS011;52402;52.670;6.750;2023-02-18T10:02:58;17.35;;;6.28;;
60292;SDS011;52402;52.670;6.750;2023-02-18T10:05:28;17.15;;;6.20;;
60292;SDS011;52402;52.670;6.750;2023-02-18T10:07:57;16.25;;;6.35;;
60292;SDS011;52402;52.670;6.750;2023-02-18T10:10:30;17.55;;;5.68;;
60292;SDS011;52402;52.670;6.750;2023-02-18T10:12:57;14.32;;;5.38;;
60292;SDS011;52402;52.670;6.750;2023-02-18T10:15:24;13.30;;;5.15;;
60292;SDS011;52402;52.670;6.750;2023-02-18T10:17:53;16.95;;;6.80;;
60292;SDS011;52402;52.670;6.750;2023-02-18T10:20:22;15.23;;;6.15;;
60292;SDS011;52402;52.670;6.750;2023-02-18T10:22:51;16.30;;;6.03;;
60292;SDS011;52402;52.670;6.750;2023-02-18T10:25:20;20.00;;;6.47;;
60292;SDS011;52402;52.670;6.750;2023-02-18T10:27:48;16.20;;;5.35;;
60292;SDS011;52402;52.670;6.750;2023-02-18T10:32:55;16.48;;;5.40;;
60292;SDS011;52402;52.670;6.750;2023-02-18T10:35:52;17.60;;;5.13;;
60292;SDS011;52402;52.670;6.750;2023-02-18T10:41:37;15.88;;;4.80;;
60292;SDS011;52402;52.670;6.750;2023-02-18T10:44:15;15.90;;;4.80;;
60292;SDS011;52402;52.670;6.750;2023-02-18T10:49:51;13.82;;;4.40;;
60292;SDS011;52402;52.670;6.750;2023-02-18T10:52:21;15.57;;;4.60;;
60292;SDS011;52402;52.670;6.750;2023-02-18T10:55:03;16.55;;;4.38;;
60292;SDS011;52402;52.670;6.750;2023-02-18T10:57:31;15.63;;;5.05;;
60292;SDS011;52402;52.670;6.750;2023-02-18T11:00:16;14.73;;;4.45;;
60292;SDS011;52402;52.670;6.750;2023-02-18T11:03:12;16.15;;;4.20;;
60292;SDS011;52402;52.670;6.750;2023-02-18T11:05:41;17.05;;;5.45;;
60292;SDS011;52402;52.670;6.750;2023-02-18T11:08:09;15.00;;;4.63;;
60292;SDS011;52402;52.670;6.750;2023-02-18T11:13:06;12.77;;;4.43;;
60292;SDS011;52402;52.670;6.750;2023-02-18T11:15:34;14.02;;;4.10;;
60292;SDS011;52402;52.670;6.750;2023-02-18T11:18:29;16.13;;;4.50;;
60292;SDS011;52402;52.670;6.750;2023-02-18T11:21:01;14.15;;;4.38;;
60292;SDS011;52402;52.670;6.750;2023-02-18T11:23:29;15.02;;;4.10;;
60292;SDS011;52402;52.670;6.750;2023-02-18T11:25:58;16.80;;;4.10;;
60292;SDS011;52402;52.670;6.750;2023-02-18T11:31:02;14.10;;;4.18;;
60292;SDS011;52402;52.670;6.750;2023-02-18T11:33:39;15.35;;;4.03;;
60292;SDS011;52402;52.670;6.750;2023-02-18T11:36:27;12.75;;;4.03;;
60292;SDS011;52402;52.670;6.750;2023-02-18T11:38:56;17.08;;;4.95;;
60292;SDS011;52402;52.670;6.750;2023-02-18T11:41:33;12.75;;;4.18;;
60292;SDS011;52402;52.670;6.750;2023-02-18T11:44:01;13.80;;;4.13;;
60292;SDS011;52402;52.670;6.750;2023-02-18T11:46:31;15.38;;;4.50;;
60292;SDS011;52402;52.670;6.750;2023-02-18T11:49:09;15.02;;;4.53;;
60292;SDS011;52402;52.670;6.750;2023-02-18T11:51:45;13.15;;;3.97;;
60292;SDS011;52402;52.670;6.750;2023-02-18T11:54:26;14.25;;;3.92;;
60292;SDS011;52402;52.670;6.750;2023-02-18T11:56:55;15.00;;;4.05;;
60292;SDS011;52402;52.670;6.750;2023-02-18T11:59:23;15.60;;;4.40;;
60292;SDS011;52402;52.670;6.750;2023-02-18T12:02:36;16.77;;;4.63;;
60292;SDS011;52402;52.670;6.750;2023-02-18T12:04:52;17.23;;;5.13;;
60292;SDS011;52402;52.670;6.750;2023-02-18T12:07:29;15.05;;;4.22;;
60292;SDS011;52402;52.670;6.750;2023-02-18T12:10:10;14.95;;;4.20;;
60292;SDS011;52402;52.670;6.750;2023-02-18T12:12:42;14.43;;;4.43;;
60292;SDS011;52402;52.670;6.750;2023-02-18T12:15:21;18.40;;;4.80;;
60292;SDS011;52402;52.670;6.750;2023-02-18T12:17:59;16.77;;;4.35;;
60292;SDS011;52402;52.670;6.750;2023-02-18T12:28:58;19.70;;;4.50;;
60292;SDS011;52402;52.670;6.750;2023-02-18T12:45:56;15.43;;;4.30;;
60292;SDS011;52402;52.670;6.750;2023-02-18T12:57:06;13.80;;;4.10;;
60292;SDS011;52402;52.670;6.750;2023-02-18T12:59:57;13.05;;;4.03;;
60292;SDS011;52402;52.670;6.750;2023-02-18T13:05:43;11.68;;;4.25;;
60292;SDS011;52402;52.670;6.750;2023-02-18T13:16:45;13.07;;;3.70;;
60292;SDS011;52402;52.670;6.750;2023-02-18T13:19:17;12.00;;;4.43;;
60292;SDS011;52402;52.670;6.750;2023-02-18T13:22:03;11.68;;;3.95;;
60292;SDS011;52402;52.670;6.750;2023-02-18T13:29:31;12.55;;;3.70;;
60292;SDS011;52402;52.670;6.750;2023-02-18T13:40:48;11.70;;;3.90;;
60292;SDS011;52402;52.670;6.750;2023-02-18T13:46:02;13.18;;;4.32;;
60292;SDS011;52402;52.670;6.750;2023-02-18T13:48:53;11.88;;;3.88;;
60292;SDS011;52402;52.670;6.750;2023-02-18T13:51:38;12.70;;;4.55;;
60292;SDS011;52402;52.670;6.750;2023-02-18T13:56:44;12.15;;;4.88;;
60292;SDS011;52402;52.670;6.750;2023-02-18T14:02:07;15.65;;;4.40;;
60292;SDS011;52402;52.670;6.750;2023-02-18T14:20:48;14.63;;;4.35;;
60292;SDS011;52402;52.670;6.750;2023-02-18T14:25:54;12.65;;;4.47;;
60292;SDS011;52402;52.670;6.750;2023-02-18T14:28:43;14.35;;;3.95;;
60292;SDS011;52402;52.670;6.750;2023-02-18T14:34:15;13.18;;;4.07;;
60292;SDS011;52402;52.670;6.750;2023-02-18T14:48:22;14.20;;;3.47;;
60292;SDS011;52402;52.670;6.750;2023-02-18T14:51:02;11.77;;;3.72;;
60292;SDS011;52402;52.670;6.750;2023-02-18T14:53:28;13.30;;;3.78;;
60292;SDS011;52402;52.670;6.750;2023-02-18T14:55:56;12.23;;;3.50;;
60292;SDS011;52402;52.670;6.750;2023-02-18T14:58:29;11.57;;;4.22;;
60292;SDS011;52402;52.670;6.750;2023-02-18T15:01:06;10.20;;;3.53;;
60292;SDS011;52402;52.670;6.750;2023-02-18T15:03:42;11.63;;;3.90;;
60292;SDS011;52402;52.670;6.750;2023-02-18T15:09:11;14.38;;;4.35;;
60292;SDS011;52402;52.670;6.750;2023-02-18T15:11:44;11.55;;;3.70;;
60292;SDS011;52402;52.670;6.750;2023-02-18T15:14:20;14.40;;;4.03;;
60292;SDS011;52402;52.670;6.750;2023-02-18T15:16:49;11.95;;;4.03;;
60292;SDS011;52402;52.670;6.750;2023-02-18T15:19:17;11.23;;;3.65;;
60292;SDS011;52402;52.670;6.750;2023-02-18T15:21:49;10.80;;;3.50;;
60292;SDS011;52402;52.670;6.750;2023-02-18T15:24:24;10.20;;;3.55;;
60292;SDS011;52402;52.670;6.750;2023-02-18T15:29:25;12.65;;;4.68;;
60292;SDS011;52402;52.670;6.750;2023-02-18T15:31:53;13.18;;;4.05;;
60292;SDS011;52402;52.670;6.750;2023-02-18T15:36:53;17.58;;;4.93;;
60292;SDS011;52402;52.670;6.750;2023-02-18T15:39:19;12.40;;;4.43;;
60292;SDS011;52402;52.670;6.750;2023-02-18T15:41:46;10.25;;;3.20;;
60292;SDS011;52402;52.670;6.750;2023-02-18T15:44:19;12.32;;;3.63;;
60292;SDS011;52402;52.670;6.750;2023-02-18T15:46:48;10.90;;;3.22;;
60292;SDS011;52402;52.670;6.750;2023-02-18T15:49:14;12.45;;;3.53;;
60292;SDS011;52402;52.670;6.750;2023-02-18T15:51:43;12.48;;;3.70;;
60292;SDS011;52402;52.670;6.750;2023-02-18T15:54:27;13.35;;;3.47;;
60292;SDS011;52402;52.670;6.750;2023-02-18T15:56:55;11.80;;;3.20;;
60292;SDS011;52402;52.670;6.750;2023-02-18T15:59:25;12.50;;;3.58;;
60292;SDS011;52402;52.670;6.750;2023-02-18T16:01:52;12.32;;;3.72;;
60292;SDS011;52402;52.670;6.750;2023-02-18T16:04:21;13.73;;;3.17;;
60292;SDS011;52402;52.670;6.750;2023-02-18T16:06:50;11.77;;;3.30;;
60292;SDS011;52402;52.670;6.750;2023-02-18T16:09:25;13.98;;;3.25;;
60292;SDS011;52402;52.670;6.750;2023-02-18T16:11:54;13.02;;;3.17;;
60292;SDS011;52402;52.670;6.750;2023-02-18T16:17:03;12.32;;;3.30;;
60292;SDS011;52402;52.670;6.750;2023-02-18T16:22:21;13.52;;;3.58;;
60292;SDS011;52402;52.670;6.750;2023-02-18T16:25:07;15.50;;;3.35;;
60292;SDS011;52402;52.670;6.750;2023-02-18T16:27:48;14.07;;;3.40;;
60292;SDS011;52402;52.670;6.750;2023-02-18T16:32:46;10.85;;;2.90;;
60292;SDS011;52402;52.670;6.750;2023-02-18T16:35:12;17.08;;;4.55;;
60292;SDS011;52402;52.670;6.750;2023-02-18T16:37:38;12.93;;;3.53;;
60292;SDS011;52402;52.670;6.750;2023-02-18T16:42:44;15.45;;;3.95;;
60292;SDS011;52402;52.670;6.750;2023-02-18T16:45:12;15.57;;;3.42;;
60292;SDS011;52402;52.670;6.750;2023-02-18T16:47:38;12.75;;;3.92;;
60292;SDS011;52402;52.670;6.750;2023-02-18T16:50:05;13.95;;;4.10;;
60292;SDS011;52402;52.670;6.750;2023-02-18T16:52:38;11.98;;;3.25;;
60292;SDS011;52402;52.670;6.750;2023-02-18T16:55:37;13.13;;;3.58;;
60292;SDS011;52402;52.670;6.750;2023-02-18T16:57:55;11.75;;;3.60;;
60292;SDS011;52402;52.670;6.750;2023-02-18T17:00:22;19.50;;;4.18;;
60292;SDS011;52402;52.670;6.750;2023-02-18T17:02:49;11.88;;;3.65;;
60292;SDS011;52402;52.670;6.750;2023-02-18T17:05:24;12.27;;;3.20;;
60292;SDS011;52402;52.670;6.750;2023-02-18T17:07:53;14.05;;;3.42;;
60292;SDS011;52402;52.670;6.750;2023-02-18T17:10:21;13.75;;;4.05;;
60292;SDS011;52402;52.670;6.750;2023-02-18T17:12:47;15.77;;;4.00;;
60292;SDS011;52402;52.670;6.750;2023-02-18T17:17:47;13.52;;;3.72;;
60292;SDS011;52402;52.670;6.750;2023-02-18T17:20:12;12.73;;;4.03;;
60292;SDS011;52402;52.670;6.750;2023-02-18T17:22:39;13.05;;;3.72;;
60292;SDS011;52402;52.670;6.750;2023-02-18T17:25:20;17.05;;;5.13;;
60292;SDS011;52402;52.670;6.750;2023-02-18T17:27:48;13.77;;;3.70;;
60292;SDS011;52402;52.670;6.750;2023-02-18T17:30:14;14.13;;;3.90;;
60292;SDS011;52402;52.670;6.750;2023-02-18T17:32:40;13.15;;;3.90;;
60292;SDS011;52402;52.670;6.750;2023-02-18T17:35:07;14.05;;;3.85;;
60292;SDS011;52402;52.670;6.750;2023-02-18T17:37:34;14.18;;;4.30;;
60292;SDS011;52402;52.670;6.750;2023-02-18T17:39:59;12.75;;;4.10;;